Neosho Falls, Kansas
Current Conditions -  °F | °C
As of 8:53 AM on Saturday 01 Nov 2014 (Local Time) from KEMP Reporting Station
Clear Clear  
Wind Chill: 22°   Ceiling: Unl
Heat Index: 30°   Visibility: 10mi
Dew Point: 23°   Wind: 9mph
Humidity: 75%   Direction: 130°SE
Pressure: 30.42"   Gusts: NA
Location:  38.01°N, 95.56°W
Report Text: KEMP 011353Z AUTO 13008KT 10SM CLR M01/M05 A3042 RMK AO2 SLP316 T10111050
Loading
Personal Weather Stations






























Interactive Weather Map
Tropical Storm Tracking
New forecast layout! Learn more

10-Day Weather Forecast

Advertisements
Track Severe Weather on mobile